Pagrindinis puslapis
METAR-TAF:

METAR-TAF

Oro uostai :

Bardufoss, Norvegija

platuma: 69-04N, ilguma: 018-32E, Aukštis: 7 m

Dabartinis oras

Ataskaita buvo paskelbta 12 minutes, ne 07:50 UTC
Vėjas 13 kt iš Vakarų/Šiaurės Vakarų
Temperatūra 8°C
Drėgmė 57%
Slėgis 1023 hPa
Matomumas 10 km arba daugiau
Mažai debesys ne aukštis 3500 ft
Su prošvaistėmis ne aukštis 4500 ft

METAR: ENDU 240750Z 29013KT 9999 FEW035 BKN045 08/00 Q1023 TEMPO 29015G25KT RMK WIND 1100FT 26014KT WIND 2200FT 27017KT

Laikas: 10:02 (08:02 UTC)

Prognozė

Ataskaita buvo paskelbta 3 valandos ir 2 minutes, ne 05:00 UTC
Prognozė galioja nuo 24 metu 06 UTC su 25 metu 06 UTC
Vėjas 9 kt iš Vakarų/Šiaurės Vakarų
Matomumas 10 km arba daugiau
Išsisklaidę debesys ne aukštis 3500 ft
Tikimybė 30% :
Laikinai
nuo 24 metu 09 UTC su 24 metu 15 UTC
Vėjas 15 kt iš Vakarų/Šiaurės Vakarų su gūsio iki 25 kt

TAF: ENDU 240500Z 2406/2506 30009KT 9999 SCT035 PROB30 TEMPO 2409/2415 29015G25KT

Orai ataskaitas ir orų prognozės (METAR, TAF).

turimą stotys yra geltonos ir raudonos taškus žemėlapyje.

Perkelti pele per norėdami pamatyti stoties vardą.

Tada spustelėkite, norėdami matyti oro stebėjimo ir prognozės.

Norėdami pakeisti žemėlapį: spustelėkite ant žalios mygtukų su juodo kryžiaus žemyn,; žalią mygtuką su brūkšneliu, jei norite nutolinti; arba žalių rodyklių gretimoms žemėlapius.


METAR-TAF: